createdAt,value
2022-11-06T19:11:58.165Z,8.23
2022-11-06T19:14:24.471Z,8.10
2022-11-06T19:16:50.775Z,7.75
2022-11-06T19:19:25.198Z,7.85
2022-11-06T19:21:52.397Z,8.73
2022-11-06T19:24:19.013Z,7.60
2022-11-06T19:26:45.351Z,7.90
2022-11-06T19:29:11.768Z,9.00
2022-11-06T19:31:38.248Z,7.93
2022-11-06T19:34:05.162Z,7.57
2022-11-06T19:36:31.697Z,7.68
2022-11-06T19:38:58.730Z,7.95
2022-11-06T19:41:25.967Z,8.15
2022-11-06T19:43:52.304Z,8.27
2022-11-06T19:46:24.676Z,8.57
2022-11-06T19:48:53.962Z,7.88
2022-11-06T19:51:20.334Z,8.43
2022-11-06T19:53:46.657Z,8.00
2022-11-06T19:56:16.382Z,8.98
2022-11-06T19:58:42.726Z,8.30
2022-11-06T20:01:10.412Z,9.13
2022-11-06T20:03:36.866Z,9.48
2022-11-06T20:06:07.631Z,8.73
2022-11-06T20:08:34.792Z,8.35
2022-11-06T20:11:08.803Z,9.05
2022-11-06T20:13:38.935Z,9.82
2022-11-06T20:16:06.306Z,9.80
2022-11-06T20:18:32.684Z,10.70
2022-11-06T20:20:59.565Z,16.08
2022-11-06T20:25:52.805Z,10.73
2022-11-06T20:30:45.397Z,11.80
2022-11-06T20:33:12.250Z,12.65
2022-11-06T20:35:38.909Z,12.90
2022-11-06T20:38:05.816Z,10.65
2022-11-06T20:40:34.573Z,8.25
2022-11-06T20:43:01.145Z,7.55
2022-11-06T20:45:27.530Z,6.68
2022-11-06T20:47:53.811Z,6.80
2022-11-06T20:50:20.259Z,6.80
2022-11-06T20:52:47.406Z,6.32
2022-11-06T20:55:13.802Z,6.63
2022-11-06T20:57:40.130Z,5.72
2022-11-06T21:00:06.720Z,7.05
2022-11-06T21:02:33.796Z,6.22
2022-11-06T21:05:00.202Z,7.55
2022-11-06T21:07:26.676Z,6.20
2022-11-06T21:09:53.216Z,6.75
2022-11-06T21:12:19.527Z,6.95
2022-11-06T21:14:45.883Z,6.65
2022-11-06T21:17:12.258Z,6.53
2022-11-06T21:19:38.652Z,6.85
2022-11-06T21:22:05.003Z,6.60
2022-11-06T21:24:31.363Z,6.32
2022-11-06T21:26:57.699Z,6.93
2022-11-06T21:29:24.728Z,6.40
2022-11-06T21:31:51.619Z,5.75
2022-11-06T21:34:18.935Z,6.72
2022-11-06T21:36:45.731Z,6.25
2022-11-06T21:39:16.630Z,6.25
2022-11-06T21:41:43.255Z,6.40
2022-11-06T21:44:13.229Z,5.38
2022-11-06T21:46:44.227Z,5.85
2022-11-06T21:49:11.871Z,5.10
2022-11-06T21:51:38.217Z,5.93
2022-11-06T21:54:23.423Z,5.35
2022-11-06T21:56:50.561Z,4.70
2022-11-06T21:59:18.060Z,4.05
2022-11-06T22:01:44.507Z,4.20
2022-11-06T22:04:11.165Z,4.70
2022-11-06T22:06:39.454Z,4.93
2022-11-06T22:09:05.744Z,5.15
2022-11-06T22:11:33.250Z,3.97
2022-11-06T22:14:00.747Z,4.95
2022-11-06T22:16:28.381Z,4.10
2022-11-06T22:18:55.008Z,4.78
2022-11-06T22:21:23.065Z,4.50
2022-11-06T22:23:49.584Z,4.20
2022-11-06T22:26:17.309Z,3.90
2022-11-06T22:28:43.906Z,4.32
2022-11-06T22:31:10.761Z,4.15
2022-11-06T22:33:37.270Z,4.35
2022-11-06T22:36:11.291Z,3.47
2022-11-06T22:38:38.669Z,4.15
2022-11-06T22:41:05.860Z,4.30
2022-11-06T22:43:32.903Z,4.93
2022-11-06T22:46:03.591Z,3.95
2022-11-06T22:48:31.484Z,4.78
2022-11-06T22:51:02.195Z,3.97
2022-11-06T22:53:28.551Z,4.75
2022-11-06T22:55:55.456Z,5.40
2022-11-06T23:00:51.703Z,4.72
2022-11-06T23:03:19.098Z,4.00
2022-11-06T23:05:45.736Z,4.90
2022-11-06T23:08:12.177Z,4.28
2022-11-06T23:10:39.071Z,4.70
2022-11-06T23:13:05.739Z,3.65
2022-11-06T23:15:32.438Z,4.90
2022-11-06T23:17:58.960Z,4.88
2022-11-06T23:20:25.319Z,3.88
2022-11-06T23:22:51.843Z,4.00
2022-11-06T23:25:19.484Z,4.22
2022-11-06T23:27:49.830Z,4.03
2022-11-06T23:30:16.480Z,3.97
2022-11-06T23:32:42.963Z,4.40
2022-11-06T23:35:13.243Z,3.78
2022-11-06T23:37:41.061Z,3.75
2022-11-06T23:40:08.230Z,3.30
2022-11-06T23:42:34.598Z,3.15
2022-11-06T23:45:22.604Z,2.97
2022-11-06T23:47:49.752Z,3.75
2022-11-06T23:50:16.415Z,4.15
2022-11-06T23:52:43.070Z,4.38
2022-11-06T23:55:09.682Z,3.08
2022-11-06T23:57:35.946Z,3.58
